createdAt,value
2019-03-10T00:03:26.758Z,63.73
2019-03-10T00:05:37.577Z,63.93
2019-03-10T00:07:48.429Z,63.82
2019-03-10T00:09:59.333Z,63.73
2019-03-10T00:12:10.156Z,63.60
2019-03-10T00:14:20.976Z,63.76
2019-03-10T00:16:31.805Z,63.77
2019-03-10T00:18:42.627Z,63.98
2019-03-10T00:20:53.424Z,64.09
2019-03-10T00:25:56.458Z,64.31
2019-03-10T00:28:07.263Z,64.17
2019-03-10T00:30:18.198Z,64.02
2019-03-10T00:32:28.987Z,64.13
2019-03-10T00:34:39.818Z,63.96
2019-03-10T00:36:50.733Z,64.15
2019-03-10T00:39:43.233Z,64.16
2019-03-10T00:42:33.855Z,64.14
2019-03-10T00:45:24.426Z,64.22
2019-03-10T00:48:16.858Z,64.29
2019-03-10T00:51:07.418Z,64.27
2019-03-10T00:53:18.321Z,64.37
2019-03-10T00:55:29.375Z,64.62
2019-03-10T00:57:40.201Z,64.50
2019-03-10T00:59:50.996Z,64.58
2019-03-10T01:02:01.814Z,64.57
2019-03-10T01:04:12.697Z,64.73
2019-03-10T01:06:23.459Z,64.92
2019-03-10T01:08:34.256Z,65.04
2019-03-10T01:10:45.167Z,65.22
2019-03-10T01:12:56.081Z,65.35
2019-03-10T01:15:48.547Z,65.37
2019-03-10T01:18:41.012Z,65.63
2019-03-10T01:21:33.502Z,66.00
2019-03-10T01:23:44.309Z,66.41
2019-03-10T01:25:55.123Z,66.53
2019-03-10T01:28:05.955Z,66.77
2019-03-10T01:30:58.397Z,66.86
2019-03-10T01:33:48.968Z,66.85
2019-03-10T01:35:59.759Z,67.24
2019-03-10T01:38:10.568Z,67.13
2019-03-10T01:40:21.370Z,67.35
2019-03-10T01:42:32.183Z,67.43
2019-03-10T01:44:43.029Z,67.59
2019-03-10T01:46:53.940Z,67.47
2019-03-10T01:49:04.773Z,67.64
2019-03-10T01:51:15.575Z,67.53
2019-03-10T01:53:26.384Z,67.51
2019-03-10T01:55:37.188Z,67.53
2019-03-10T01:57:48.094Z,67.60
2019-03-10T01:59:58.910Z,67.81
2019-03-10T02:02:09.691Z,68.09
2019-03-10T02:04:20.533Z,68.25
2019-03-10T02:06:31.331Z,68.07
2019-03-10T02:08:42.144Z,68.14
2019-03-10T02:10:52.968Z,68.13
2019-03-10T02:13:03.756Z,68.11
2019-03-10T02:15:14.590Z,67.89
2019-03-10T02:17:25.387Z,67.89
2019-03-10T02:19:36.207Z,68.14
2019-03-10T02:21:47.007Z,68.33
2019-03-10T02:23:57.810Z,68.45
2019-03-10T02:26:08.603Z,68.50
2019-03-10T02:28:19.398Z,68.61
2019-03-10T02:30:30.223Z,68.76
2019-03-10T02:32:41.117Z,68.75
2019-03-10T02:34:51.928Z,68.72
2019-03-10T02:37:02.826Z,68.85
2019-03-10T02:39:13.622Z,69.14
2019-03-10T02:41:24.446Z,69.40
2019-03-10T02:43:35.263Z,69.50
2019-03-10T02:45:46.085Z,69.58
2019-03-10T02:47:56.884Z,69.56
2019-03-10T02:50:49.352Z,69.71
2019-03-10T02:53:00.159Z,69.62
2019-03-10T02:55:11.066Z,69.59
2019-03-10T02:57:21.883Z,69.57
2019-03-10T02:59:32.687Z,69.75
2019-03-10T03:01:43.509Z,69.66
2019-03-10T03:03:54.350Z,69.84
2019-03-10T03:06:05.232Z,69.98
2019-03-10T03:08:17.058Z,69.99
2019-03-10T03:10:28.832Z,69.91
2019-03-10T03:12:39.747Z,70.14
2019-03-10T03:14:50.559Z,70.30
2019-03-10T03:17:01.355Z,70.13
2019-03-10T03:19:12.167Z,70.21
2019-03-10T03:21:23.018Z,70.32
2019-03-10T03:23:33.801Z,70.15
2019-03-10T03:25:44.618Z,70.31
2019-03-10T03:27:55.436Z,70.53
2019-03-10T03:30:47.876Z,70.96
2019-03-10T03:32:58.821Z,71.75
2019-03-10T03:35:49.366Z,73.08
2019-03-10T03:38:00.178Z,73.09
2019-03-10T03:40:10.976Z,72.86
2019-03-10T03:42:21.814Z,72.74
2019-03-10T03:44:32.612Z,72.87
2019-03-10T03:46:43.539Z,73.19
2019-03-10T03:48:54.322Z,74.17
2019-03-10T03:51:05.121Z,74.93
2019-03-10T03:53:15.934Z,75.26
2019-03-10T03:55:26.737Z,75.27
2019-03-10T03:57:37.561Z,75.26
2019-03-10T03:59:48.343Z,75.11
2019-03-10T04:04:21.441Z,76.02
2019-03-10T04:06:32.226Z,76.74
2019-03-10T04:08:43.157Z,77.29
2019-03-10T04:10:53.952Z,78.25
2019-03-10T04:13:04.744Z,78.51
2019-03-10T04:15:15.562Z,78.76
2019-03-10T04:17:26.405Z,78.50
2019-03-10T04:19:37.197Z,78.22
2019-03-10T04:21:48.009Z,78.09
2019-03-10T04:23:58.891Z,78.07
2019-03-10T04:26:09.678Z,78.13
2019-03-10T04:28:20.467Z,78.39
2019-03-10T04:30:31.293Z,78.74
2019-03-10T04:32:42.133Z,79.08
2019-03-10T04:34:52.927Z,79.25
2019-03-10T04:37:03.718Z,79.14
2019-03-10T04:39:14.540Z,79.53
2019-03-10T04:41:25.337Z,79.69
2019-03-10T04:43:36.168Z,80.47
2019-03-10T04:45:46.958Z,80.74
2019-03-10T04:47:57.755Z,80.87
2019-03-10T04:50:08.574Z,80.92
2019-03-10T04:52:19.446Z,81.07
2019-03-10T04:54:50.135Z,81.48
2019-03-10T04:59:33.309Z,82.10
2019-03-10T05:01:44.095Z,82.13
2019-03-10T05:03:54.946Z,82.50
2019-03-10T05:06:05.738Z,82.43
2019-03-10T05:08:16.542Z,82.44
2019-03-10T05:10:27.373Z,82.64
2019-03-10T05:12:38.155Z,82.71
2019-03-10T05:14:48.954Z,83.16
2019-03-10T05:16:59.749Z,83.11
2019-03-10T05:19:10.554Z,83.01
2019-03-10T05:21:21.379Z,83.36
2019-03-10T05:24:13.825Z,83.45
2019-03-10T05:26:24.632Z,83.56
2019-03-10T05:28:55.287Z,83.76
2019-03-10T05:31:06.123Z,83.52
2019-03-10T05:33:16.927Z,83.69
2019-03-10T05:35:27.733Z,83.92
2019-03-10T05:37:38.530Z,83.64
2019-03-10T05:39:49.314Z,83.69
2019-03-10T05:42:00.155Z,83.43
2019-03-10T05:44:10.936Z,83.64
2019-03-10T05:46:21.756Z,83.86
2019-03-10T05:48:32.530Z,83.69
2019-03-10T05:50:43.322Z,83.52
2019-03-10T05:52:54.135Z,82.98
2019-03-10T05:55:05.030Z,82.97
2019-03-10T05:57:15.834Z,82.95
2019-03-10T05:59:26.632Z,83.21
2019-03-10T06:01:37.455Z,83.32
2019-03-10T06:03:48.260Z,83.51
2019-03-10T06:05:59.065Z,83.85
2019-03-10T06:08:09.887Z,83.06
2019-03-10T06:10:20.712Z,82.52
2019-03-10T06:12:31.522Z,82.50
2019-03-10T06:14:42.316Z,82.31
2019-03-10T06:16:53.232Z,82.44
2019-03-10T06:19:04.023Z,82.69
2019-03-10T06:21:14.840Z,82.88
2019-03-10T06:23:25.653Z,83.13
2019-03-10T06:25:36.445Z,83.60
2019-03-10T06:27:47.276Z,84.10
2019-03-10T06:29:58.059Z,84.42
2019-03-10T06:32:08.853Z,84.95
2019-03-10T06:34:19.689Z,84.88
2019-03-10T06:36:30.499Z,85.26
2019-03-10T06:38:41.316Z,85.28
2019-03-10T06:40:52.114Z,85.34
2019-03-10T06:43:02.935Z,85.60
2019-03-10T06:45:13.728Z,85.87
2019-03-10T06:47:24.554Z,85.88
2019-03-10T06:49:35.359Z,85.88
2019-03-10T06:51:46.153Z,86.28
2019-03-10T06:53:56.982Z,87.02
2019-03-10T06:56:07.773Z,87.34
2019-03-10T06:58:18.597Z,87.35
2019-03-10T07:00:29.404Z,87.62
2019-03-10T07:02:40.213Z,87.78
2019-03-10T07:04:51.049Z,87.82
2019-03-10T07:07:01.873Z,87.77
2019-03-10T07:09:12.694Z,88.14
2019-03-10T07:11:23.490Z,88.42
2019-03-10T07:13:34.302Z,88.63
2019-03-10T07:15:45.132Z,88.76
2019-03-10T07:17:55.929Z,88.72
2019-03-10T07:20:48.399Z,88.74
2019-03-10T07:22:59.218Z,88.64
2019-03-10T07:25:10.125Z,88.62
2019-03-10T07:34:54.465Z,89.40
2019-03-10T07:37:25.127Z,89.47
2019-03-10T07:39:55.851Z,89.56
2019-03-10T07:42:26.535Z,89.90
2019-03-10T07:47:19.504Z,89.73
2019-03-10T07:52:19.789Z,89.91
2019-03-10T07:54:45.103Z,90.05
2019-03-10T07:57:15.816Z,90.11
2019-03-10T07:59:46.479Z,90.43
2019-03-10T08:02:17.284Z,90.54
2019-03-10T08:04:47.979Z,90.60
2019-03-10T08:09:37.713Z,90.42
2019-03-10T08:14:30.562Z,90.46
2019-03-10T08:17:01.239Z,90.68
2019-03-10T08:24:22.861Z,91.03
2019-03-10T08:26:53.535Z,90.98
2019-03-10T08:29:24.237Z,91.15
2019-03-10T08:31:54.922Z,91.25
2019-03-10T08:34:25.633Z,91.33
2019-03-10T08:36:56.303Z,91.23
2019-03-10T08:39:27.020Z,91.13
2019-03-10T08:41:57.695Z,90.93
2019-03-10T08:44:28.373Z,90.79
2019-03-10T08:46:59.049Z,90.16
2019-03-10T08:49:29.728Z,89.96
2019-03-10T08:52:00.432Z,89.62
2019-03-10T08:54:31.126Z,89.09
2019-03-10T08:57:01.839Z,88.38
2019-03-10T08:59:32.557Z,87.71
2019-03-10T09:02:03.220Z,86.76
2019-03-10T09:04:33.922Z,86.75
2019-03-10T09:07:04.624Z,86.32
2019-03-10T09:09:35.322Z,85.71
2019-03-10T09:12:06.040Z,85.42
2019-03-10T09:16:55.498Z,84.52
2019-03-10T09:19:26.203Z,84.33
2019-03-10T09:24:29.254Z,83.33
2019-03-10T09:26:59.929Z,83.55
2019-03-10T09:29:30.672Z,83.14
2019-03-10T09:32:01.441Z,82.61
2019-03-10T09:34:32.157Z,82.45
2019-03-10T09:37:02.859Z,82.26
2019-03-10T09:42:05.913Z,82.06
2019-03-10T09:44:36.590Z,82.49
2019-03-10T09:47:07.303Z,82.75
2019-03-10T09:52:10.370Z,82.93
2019-03-10T09:54:41.067Z,82.60
2019-03-10T09:59:30.370Z,82.97
2019-03-10T10:04:23.342Z,82.82
2019-03-10T10:06:54.120Z,82.92
2019-03-10T10:09:46.570Z,83.09
2019-03-10T10:12:17.264Z,83.33
2019-03-10T10:14:48.816Z,83.18
2019-03-10T10:17:19.751Z,83.04
2019-03-10T10:19:50.442Z,82.30
2019-03-10T10:22:21.137Z,82.74
2019-03-10T10:24:51.811Z,82.57
2019-03-10T10:27:22.518Z,82.38
2019-03-10T10:29:53.310Z,82.04
2019-03-10T10:32:24.028Z,82.09
2019-03-10T10:34:54.702Z,82.64
2019-03-10T10:37:25.420Z,82.29
2019-03-10T10:42:28.470Z,81.18
2019-03-10T10:44:59.177Z,80.33
2019-03-10T10:47:38.596Z,80.22
2019-03-10T10:50:09.401Z,79.86
2019-03-10T10:52:40.215Z,80.07
2019-03-10T10:55:10.898Z,79.34
2019-03-10T11:02:19.365Z,78.04
2019-03-10T11:04:50.102Z,78.22
2019-03-10T11:09:53.245Z,78.15
2019-03-10T11:12:24.023Z,77.93
2019-03-10T11:14:54.741Z,77.56
2019-03-10T11:17:25.435Z,77.17
2019-03-10T11:19:56.125Z,77.51
2019-03-10T11:22:26.806Z,76.91
2019-03-10T11:24:57.504Z,76.22
2019-03-10T11:27:28.191Z,75.96
2019-03-10T11:34:43.351Z,74.99
2019-03-10T11:37:14.056Z,74.19
2019-03-10T11:39:44.851Z,73.77
2019-03-10T11:42:15.516Z,72.84
2019-03-10T11:47:24.826Z,71.81
2019-03-10T11:52:14.279Z,70.94
2019-03-10T11:54:44.991Z,70.31
2019-03-10T11:57:15.812Z,66.50
2019-03-10T12:02:16.147Z,64.63
2019-03-10T12:04:41.424Z,63.95
2019-03-10T12:07:12.147Z,61.85
2019-03-10T12:09:22.958Z,63.35
2019-03-10T12:11:33.803Z,63.02
2019-03-10T12:13:44.607Z,64.84
2019-03-10T12:15:55.542Z,65.47
2019-03-10T12:18:06.423Z,64.04
2019-03-10T12:20:17.293Z,62.63
2019-03-10T12:22:28.134Z,61.75
2019-03-10T12:24:39.144Z,62.12
2019-03-10T12:26:49.975Z,61.95
2019-03-10T12:29:00.790Z,61.26
2019-03-10T12:31:11.642Z,62.50
2019-03-10T12:33:22.451Z,61.83
2019-03-10T12:35:34.632Z,62.57
2019-03-10T12:37:46.034Z,62.20
2019-03-10T12:39:56.852Z,61.17
2019-03-10T12:42:07.735Z,59.72
2019-03-10T12:44:18.545Z,59.01
2019-03-10T12:46:29.478Z,59.17
2019-03-10T12:48:40.321Z,58.38
2019-03-10T12:50:51.148Z,58.52
2019-03-10T12:53:01.986Z,57.82
2019-03-10T12:55:12.904Z,56.59
2019-03-10T12:57:23.731Z,56.85
2019-03-10T12:59:34.591Z,57.28
2019-03-10T13:01:45.550Z,56.08
2019-03-10T13:03:59.159Z,56.34
2019-03-10T13:06:09.330Z,56.38
2019-03-10T13:08:20.295Z,55.24
2019-03-10T13:10:31.092Z,55.73
2019-03-10T13:12:42.037Z,55.98
2019-03-10T13:14:59.300Z,54.58
2019-03-10T13:17:05.574Z,54.95
2019-03-10T13:19:16.481Z,54.64
2019-03-10T13:21:27.290Z,53.82
2019-03-10T13:23:38.284Z,54.35
2019-03-10T13:25:49.089Z,52.09
2019-03-10T13:27:59.937Z,51.03
2019-03-10T13:30:30.605Z,51.65
2019-03-10T13:32:44.081Z,49.23
2019-03-10T13:34:54.128Z,46.58
2019-03-10T13:37:04.951Z,47.03
2019-03-10T13:39:15.788Z,47.43
2019-03-10T13:41:26.618Z,47.00
2019-03-10T13:43:37.479Z,47.68
2019-03-10T13:45:48.325Z,47.61
2019-03-10T13:47:59.122Z,48.43
2019-03-10T13:50:29.842Z,48.07
2019-03-10T13:52:40.721Z,48.31
2019-03-10T13:54:51.541Z,46.31
2019-03-10T13:57:02.373Z,46.29
2019-03-10T13:59:13.201Z,45.67
2019-03-10T14:01:24.023Z,46.13
2019-03-10T14:03:34.875Z,45.40
2019-03-10T14:05:45.828Z,45.20
2019-03-10T14:07:56.647Z,45.75
2019-03-10T14:10:27.345Z,46.56
2019-03-10T14:12:38.266Z,45.76
2019-03-10T14:17:11.635Z,46.02
2019-03-10T14:19:22.436Z,45.58
2019-03-10T14:21:33.508Z,45.84
2019-03-10T14:23:44.334Z,45.66
2019-03-10T14:25:55.277Z,45.05
2019-03-10T14:28:06.076Z,44.92
2019-03-10T14:30:58.611Z,44.39
2019-03-10T14:33:09.533Z,45.30
2019-03-10T14:35:20.405Z,45.39
2019-03-10T14:37:31.207Z,44.32
2019-03-10T14:39:42.033Z,44.96
2019-03-10T14:41:52.866Z,45.13
2019-03-10T14:44:03.789Z,44.81
2019-03-10T14:46:14.636Z,44.42
2019-03-10T14:48:25.427Z,45.03
2019-03-10T14:50:36.364Z,45.10
2019-03-10T14:52:47.197Z,43.83
2019-03-10T14:54:58.064Z,45.09
2019-03-10T14:57:08.896Z,45.09
2019-03-10T14:59:19.804Z,45.22
2019-03-10T15:01:30.717Z,44.84
2019-03-10T15:03:41.648Z,45.50
2019-03-10T15:05:52.486Z,45.36
2019-03-10T15:08:03.414Z,45.66
2019-03-10T15:10:55.853Z,44.47
2019-03-10T15:13:06.691Z,43.76
2019-03-10T15:15:59.164Z,43.60
2019-03-10T15:18:10.095Z,43.26
2019-03-10T15:20:21.726Z,43.34
2019-03-10T15:22:33.783Z,41.99
2019-03-10T15:24:44.622Z,40.55
2019-03-10T15:26:55.407Z,40.33
2019-03-10T15:29:06.233Z,39.27
2019-03-10T15:31:17.055Z,39.67
2019-03-10T15:33:27.887Z,39.31
2019-03-10T15:35:38.694Z,39.58
2019-03-10T15:37:49.509Z,38.92
2019-03-10T15:40:00.387Z,38.74
2019-03-10T15:42:11.254Z,38.04
2019-03-10T15:44:22.120Z,38.45
2019-03-10T15:46:32.897Z,38.55
2019-03-10T15:48:43.706Z,38.07
2019-03-10T15:50:54.629Z,37.18
2019-03-10T15:53:05.528Z,37.91
2019-03-10T15:55:36.353Z,38.72
2019-03-10T15:58:28.820Z,38.92
2019-03-10T16:01:21.288Z,39.09
2019-03-10T16:03:32.120Z,38.54
2019-03-10T16:05:43.140Z,39.34
2019-03-10T16:07:53.961Z,39.79
2019-03-10T16:10:46.451Z,40.70
2019-03-10T16:12:57.259Z,41.29
2019-03-10T16:15:49.748Z,42.37
2019-03-10T16:18:00.551Z,42.42
2019-03-10T16:20:53.055Z,42.26
2019-03-10T16:23:03.903Z,42.80
2019-03-10T16:25:56.397Z,43.60
2019-03-10T16:28:07.195Z,43.57
2019-03-10T16:30:37.901Z,43.64
2019-03-10T16:32:48.733Z,44.07
2019-03-10T16:34:59.545Z,44.04
2019-03-10T16:37:10.394Z,43.28
2019-03-10T16:39:21.285Z,41.95
2019-03-10T16:41:32.144Z,42.13
2019-03-10T16:43:42.951Z,42.64
2019-03-10T16:45:53.766Z,43.63
2019-03-10T16:48:04.685Z,43.31
2019-03-10T16:53:01.201Z,41.57
2019-03-10T16:55:12.017Z,41.35
2019-03-10T16:57:24.898Z,41.10
2019-03-10T16:59:35.568Z,40.64
2019-03-10T17:01:46.384Z,40.57
2019-03-10T17:03:57.232Z,40.92
2019-03-10T17:06:08.123Z,40.66
2019-03-10T17:08:18.961Z,41.03
2019-03-10T17:10:29.773Z,41.52
2019-03-10T17:12:40.871Z,42.14
2019-03-10T17:14:51.682Z,42.08
2019-03-10T17:17:02.489Z,42.62
2019-03-10T17:19:13.333Z,43.00
2019-03-10T17:24:03.031Z,43.05
2019-03-10T17:26:13.834Z,43.31
2019-03-10T17:28:24.874Z,43.93
2019-03-10T17:30:35.659Z,44.56
2019-03-10T17:33:28.121Z,44.34
2019-03-10T17:35:38.964Z,42.96
2019-03-10T17:37:49.805Z,42.72
2019-03-10T17:40:00.606Z,42.96
2019-03-10T17:42:11.429Z,41.65
2019-03-10T17:44:22.355Z,40.98
2019-03-10T17:46:33.171Z,40.99
2019-03-10T17:48:44.023Z,41.02
2019-03-10T17:50:54.836Z,41.55
2019-03-10T17:53:07.496Z,40.82
2019-03-10T17:56:00.037Z,41.67
2019-03-10T17:58:10.857Z,41.81
2019-03-10T18:00:41.628Z,41.91
2019-03-10T18:02:52.450Z,42.28
2019-03-10T18:05:44.997Z,42.06
2019-03-10T18:07:55.816Z,42.67
2019-03-10T18:10:27.489Z,43.06
2019-03-10T18:12:38.284Z,43.66
2019-03-10T18:14:49.145Z,44.01
2019-03-10T18:16:59.948Z,43.79
2019-03-10T18:19:10.773Z,43.76
2019-03-10T18:21:21.635Z,44.23
2019-03-10T18:23:32.485Z,44.45
2019-03-10T18:25:43.315Z,44.88
2019-03-10T18:27:54.145Z,47.35
2019-03-10T18:30:46.685Z,45.41
2019-03-10T18:32:57.511Z,45.21
2019-03-10T18:35:08.471Z,46.34
2019-03-10T18:37:19.287Z,47.14
2019-03-10T18:39:30.088Z,47.79
2019-03-10T18:41:40.906Z,48.47
2019-03-10T18:43:51.717Z,49.19
2019-03-10T18:46:02.722Z,50.16
2019-03-10T18:48:13.516Z,52.13
2019-03-10T18:51:06.049Z,55.18
2019-03-10T18:53:16.876Z,54.28
2019-03-10T18:55:27.814Z,55.48
2019-03-10T18:57:38.625Z,54.83
2019-03-10T19:00:09.325Z,54.49
2019-03-10T19:02:20.162Z,54.50
2019-03-10T19:04:31.028Z,53.34
2019-03-10T19:06:42.159Z,53.75
2019-03-10T19:08:52.972Z,53.75
2019-03-10T19:11:03.897Z,53.82
2019-03-10T19:13:14.753Z,54.37
2019-03-10T19:16:07.237Z,54.78
2019-03-10T19:18:18.138Z,54.80
2019-03-10T19:20:28.959Z,55.09
2019-03-10T19:22:39.804Z,55.97
2019-03-10T19:24:50.631Z,55.66
2019-03-10T19:27:01.466Z,56.10
2019-03-10T19:29:12.351Z,56.19
2019-03-10T19:31:23.177Z,55.95
2019-03-10T19:33:34.041Z,56.10
2019-03-10T19:35:44.941Z,55.49
2019-03-10T19:37:55.814Z,55.83
2019-03-10T19:40:48.280Z,55.22
2019-03-10T19:42:59.133Z,55.33
2019-03-10T19:45:51.613Z,54.92
2019-03-10T19:48:02.581Z,54.94
2019-03-10T19:50:55.062Z,54.07
2019-03-10T19:53:05.903Z,52.88
2019-03-10T19:55:16.718Z,51.86
2019-03-10T19:57:27.527Z,50.72
2019-03-10T19:59:38.376Z,49.72
2019-03-10T20:01:49.173Z,48.38
2019-03-10T20:04:00.040Z,47.05
2019-03-10T20:06:10.886Z,47.02
2019-03-10T20:08:21.721Z,45.93
2019-03-10T20:10:32.532Z,45.79
2019-03-10T20:12:43.386Z,45.69
2019-03-10T20:14:54.220Z,45.56
2019-03-10T20:17:05.022Z,45.89
2019-03-10T20:19:15.889Z,45.65
2019-03-10T20:21:26.725Z,45.70
2019-03-10T20:23:37.581Z,46.58
2019-03-10T20:25:48.419Z,46.01
2019-03-10T20:27:59.239Z,45.48
2019-03-10T20:30:29.933Z,45.91
2019-03-10T20:32:40.741Z,46.10
2019-03-10T20:34:51.569Z,45.75
2019-03-10T20:37:02.389Z,46.01
2019-03-10T20:39:13.257Z,45.99
2019-03-10T20:41:24.057Z,46.62
2019-03-10T20:43:34.898Z,46.95
2019-03-10T20:45:45.733Z,47.30
2019-03-10T20:47:57.007Z,47.87
2019-03-10T20:50:50.988Z,48.24
2019-03-10T20:53:01.815Z,48.30
2019-03-10T20:55:54.309Z,48.09
2019-03-10T20:58:05.104Z,48.66
2019-03-10T21:00:35.801Z,48.30
2019-03-10T21:02:46.613Z,49.11
2019-03-10T21:04:57.484Z,48.57
2019-03-10T21:07:10.243Z,48.88
2019-03-10T21:09:21.131Z,49.19
2019-03-10T21:11:31.978Z,49.96
2019-03-10T21:13:42.885Z,49.88
2019-03-10T21:15:53.709Z,50.22
2019-03-10T21:18:04.565Z,50.41
2019-03-10T21:20:57.025Z,50.24
2019-03-10T21:23:08.226Z,50.15
2019-03-10T21:26:00.696Z,50.26
2019-03-10T21:28:11.513Z,50.52
2019-03-10T21:31:04.007Z,49.74
2019-03-10T21:33:14.819Z,50.07
2019-03-10T21:35:25.639Z,48.74
2019-03-10T21:37:36.469Z,49.04
2019-03-10T21:39:49.286Z,48.93
2019-03-10T21:42:00.027Z,48.64
2019-03-10T21:44:10.844Z,48.72
2019-03-10T21:46:21.653Z,48.29
2019-03-10T21:48:32.459Z,48.23
2019-03-10T21:50:43.266Z,48.03
2019-03-10T21:52:54.099Z,47.83
2019-03-10T21:55:46.528Z,47.71
2019-03-10T21:57:57.381Z,47.76
2019-03-10T22:00:28.048Z,48.67
2019-03-10T22:02:38.900Z,48.18
2019-03-10T22:04:49.752Z,48.24
2019-03-10T22:07:00.594Z,48.69
2019-03-10T22:09:11.473Z,48.81
2019-03-10T22:11:22.298Z,49.05
2019-03-10T22:13:33.236Z,48.66
2019-03-10T22:15:44.031Z,48.79
2019-03-10T22:17:54.893Z,49.06
2019-03-10T22:20:25.561Z,48.97
2019-03-10T22:22:48.027Z,49.27
2019-03-10T22:24:49.110Z,49.16
2019-03-10T22:26:59.942Z,49.48
2019-03-10T22:29:10.845Z,49.71
2019-03-10T22:31:21.619Z,49.62
2019-03-10T22:33:32.457Z,49.97
2019-03-10T22:35:43.252Z,50.00
2019-03-10T22:37:54.102Z,49.59
2019-03-10T22:40:46.560Z,49.83
2019-03-10T22:42:57.391Z,50.03
2019-03-10T22:45:49.877Z,50.27
2019-03-10T22:48:00.702Z,49.54
2019-03-10T22:50:53.167Z,49.33
2019-03-10T22:53:04.006Z,49.60
2019-03-10T22:55:14.920Z,49.63
2019-03-10T22:57:25.740Z,49.46
2019-03-10T22:59:36.672Z,49.27
2019-03-10T23:01:47.512Z,49.61
2019-03-10T23:03:58.371Z,50.08
2019-03-10T23:06:09.280Z,49.97
2019-03-10T23:08:20.098Z,49.83
2019-03-10T23:10:30.950Z,49.71
2019-03-10T23:12:41.759Z,49.87
2019-03-10T23:14:52.598Z,49.89
2019-03-10T23:17:03.406Z,50.06
2019-03-10T23:19:14.243Z,50.35
2019-03-10T23:21:25.050Z,50.32
2019-03-10T23:23:35.907Z,50.60
2019-03-10T23:25:46.693Z,50.73
2019-03-10T23:27:57.606Z,51.10
2019-03-10T23:30:28.285Z,50.79
2019-03-10T23:32:39.092Z,50.81
2019-03-10T23:34:49.890Z,50.54
2019-03-10T23:37:00.705Z,50.72
2019-03-10T23:39:11.510Z,50.63
2019-03-10T23:41:22.437Z,50.81
2019-03-10T23:43:33.237Z,50.51
2019-03-10T23:45:44.054Z,50.91
2019-03-10T23:47:54.862Z,50.99
2019-03-10T23:50:47.332Z,50.92
2019-03-10T23:52:58.130Z,50.62
2019-03-10T23:55:50.594Z,49.61
2019-03-10T23:58:01.397Z,48.63
